Time;durP1;ratioP1;P1;durP2;ratioP2;P2;SDS_P1;SDS_P2;PMS_P1;PMS_P2;Temp;Humidity;BMP_temperature;BMP_pressure;BME280_temperature;BME280_humidity;BME280_pressure;Samples;Min_cycle;Max_cycle;Signal;HPM_P1;HPM_P2
2022/07/23 00:01:00;;;;;;;0.10;0.10;;;14.90;99.90;;;;;;5164582;27;20456;-82
2022/07/23 00:03:26;;;;;;;0.15;0.15;;;14.80;99.90;;;;;;5130484;28;20118;-83
2022/07/23 00:05:53;;;;;;;0.10;0.10;;;14.80;99.90;;;;;;5147762;28;20048;-83
2022/07/23 00:08:20;;;;;;;0.15;0.13;;;14.80;99.90;;;;;;5147115;28;20032;-83
2022/07/23 00:10:46;;;;;;;0.22;0.22;;;14.90;99.90;;;;;;5130023;28;20115;-83
2022/07/23 00:13:13;;;;;;;0.20;0.20;;;14.80;99.90;;;;;;5164162;27;20040;-83
2022/07/23 00:15:40;;;;;;;0.30;0.30;;;14.90;99.90;;;;;;5130152;28;20040;-83
2022/07/23 00:18:07;;;;;;;0.10;0.10;;;14.80;99.90;;;;;;5147375;28;20031;-84
2022/07/23 00:20:33;;;;;;;0.10;0.10;;;14.80;99.90;;;;;;5147384;28;20675;-83
2022/07/23 00:23:00;;;;;;;0.10;0.10;;;14.80;99.90;;;;;;5147124;28;20480;-83
2022/07/23 00:25:27;;;;;;;0.22;0.20;;;14.80;99.90;;;;;;5130174;28;20126;-83
2022/07/23 00:27:54;;;;;;;0.20;0.10;;;14.80;99.90;;;;;;5147389;28;20027;-84
2022/07/23 00:30:20;;;;;;;0.20;0.10;;;14.80;99.90;;;;;;5129887;28;20404;-84
2022/07/23 00:32:53;;;;;;;0.30;0.10;;;14.80;99.90;;;;;;5130263;28;20044;-83
2022/07/23 00:35:21;;;;;;;0.10;0.10;;;14.80;99.90;;;;;;5130193;28;20039;-83
2022/07/23 00:37:48;;;;;;;0.20;0.20;;;14.80;99.90;;;;;;5130224;28;20059;-84
2022/07/23 00:40:15;;;;;;;0.10;0.10;;;14.80;99.90;;;;;;5146872;28;20051;-84
2022/07/23 00:42:42;;;;;;;0.25;0.10;;;14.80;99.90;;;;;;5164024;27;20047;-83
2022/07/23 00:45:09;;;;;;;0.10;0.10;;;14.80;99.90;;;;;;5129887;28;20114;-84
2022/07/23 00:47:36;;;;;;;0.10;0.10;;;14.80;99.90;;;;;;5129725;28;20578;-83
2022/07/23 00:50:05;;;;;;;0.00;0.00;;;14.80;99.90;;;;;;5146798;28;20079;-83
2022/07/23 00:52:33;;;;;;;0.20;0.17;;;14.80;99.90;;;;;;5129985;28;20040;-83
2022/07/23 00:54:59;;;;;;;0.10;0.10;;;14.70;99.90;;;;;;5130278;28;20040;-83
2022/07/23 00:57:26;;;;;;;0.10;0.10;;;14.70;99.90;;;;;;5146870;28;20492;-83
2022/07/23 00:59:53;;;;;;;0.20;0.20;;;14.70;99.90;;;;;;5147291;28;20039;-83
2022/07/23 01:02:20;;;;;;;0.10;0.10;;;14.60;99.90;;;;;;5146790;28;20404;-83
2022/07/23 01:04:47;;;;;;;0.20;0.20;;;14.50;99.90;;;;;;5146633;28;20485;-83
2022/07/23 01:07:13;;;;;;;0.30;0.30;;;14.50;99.90;;;;;;5181126;27;20036;-83
2022/07/23 01:09:44;;;;;;;0.20;0.20;;;14.50;99.90;;;;;;5146617;28;20044;-84
2022/07/23 01:12:11;;;;;;;0.13;0.10;;;14.40;99.90;;;;;;5129624;28;20040;-83
2022/07/23 01:14:38;;;;;;;0.10;0.10;;;14.40;99.90;;;;;;5129293;28;20096;-84
2022/07/23 01:17:05;;;;;;;0.03;0.03;;;14.40;99.90;;;;;;5146897;28;20035;-83
2022/07/23 01:19:32;;;;;;;0.20;0.20;;;14.30;99.90;;;;;;5129559;28;20062;-83
2022/07/23 01:22:02;;;;;;;0.00;0.00;;;14.30;99.90;;;;;;5150122;28;20127;-84
2022/07/23 01:24:29;;;;;;;0.00;0.00;;;14.30;99.90;;;;;;5150507;28;20039;-83
2022/07/23 01:26:56;;;;;;;0.10;0.10;;;14.20;99.90;;;;;;5133779;28;20082;-83
2022/07/23 01:29:23;;;;;;;0.10;0.10;;;14.20;99.90;;;;;;5167683;27;20071;-83
2022/07/23 01:31:50;;;;;;;0.05;0.05;;;14.20;99.90;;;;;;5133120;28;20039;-83
2022/07/23 01:34:17;;;;;;;0.20;0.20;;;14.10;99.90;;;;;;5148072;28;20035;-84
2022/07/23 01:36:44;;;;;;;0.40;0.20;;;14.10;99.90;;;;;;5122661;28;20047;-84
2022/07/23 01:39:11;;;;;;;0.10;0.10;;;14.10;99.90;;;;;;5133413;28;20100;-83
2022/07/23 01:41:37;;;;;;;0.35;0.10;;;14.10;99.90;;;;;;5147573;28;20044;-83
2022/07/23 01:44:04;;;;;;;0.22;0.13;;;14.00;99.90;;;;;;5150727;28;20035;-83
2022/07/23 01:46:31;;;;;;;0.10;0.10;;;14.00;99.90;;;;;;5150067;28;20369;-83
2022/07/23 01:48:57;;;;;;;0.35;0.20;;;14.00;99.90;;;;;;5167154;27;20031;-84
2022/07/23 01:51:24;;;;;;;0.05;0.05;;;14.00;99.90;;;;;;5149527;28;20054;-84
2022/07/23 01:53:51;;;;;;;0.20;0.10;;;14.00;99.90;;;;;;5133059;28;20039;-84
2022/07/23 01:56:20;;;;;;;0.20;0.20;;;14.00;99.90;;;;;;5116270;28;20047;-83
2022/07/23 01:58:48;;;;;;;0.03;0.03;;;14.00;99.90;;;;;;5149961;27;20043;-84
2022/07/23 02:01:15;;;;;;;0.10;0.10;;;14.00;99.90;;;;;;5150072;27;20044;-83
2022/07/23 02:03:42;;;;;;;0.15;0.15;;;13.90;99.90;;;;;;5149488;28;20040;-84
2022/07/23 02:06:08;;;;;;;0.00;0.00;;;13.80;99.90;;;;;;5166925;27;20044;-83
2022/07/23 02:08:35;;;;;;;0.20;0.10;;;13.80;99.90;;;;;;5132371;28;20480;-83
2022/07/23 02:11:02;;;;;;;0.13;0.10;;;13.80;99.90;;;;;;5132651;28;20291;-83
2022/07/23 02:13:29;;;;;;;0.43;0.20;;;13.60;99.90;;;;;;5149462;28;20038;-84
2022/07/23 02:15:56;;;;;;;0.10;0.10;;;13.60;99.90;;;;;;5166772;27;20122;-83
2022/07/23 02:18:22;;;;;;;0.30;0.20;;;13.60;99.90;;;;;;5132531;28;20100;-83
2022/07/23 02:20:49;;;;;;;0.10;0.10;;;13.50;99.90;;;;;;5132613;28;20032;-83
2022/07/23 02:23:16;;;;;;;0.10;0.10;;;13.50;99.90;;;;;;5132640;28;20040;-84
2022/07/23 02:25:42;;;;;;;0.00;0.00;;;13.50;99.90;;;;;;5149290;28;20042;-83
2022/07/23 02:28:09;;;;;;;0.10;0.10;;;13.40;99.90;;;;;;5132757;28;20031;-83
2022/07/23 02:30:37;;;;;;;0.50;0.32;;;13.30;99.90;;;;;;5132450;28;20126;-83
2022/07/23 02:33:04;;;;;;;0.10;0.10;;;13.30;99.90;;;;;;5131891;28;20043;-83
2022/07/23 02:35:30;;;;;;;0.10;0.10;;;13.20;99.90;;;;;;5149652;28;20412;-84
2022/07/23 02:37:57;;;;;;;0.15;0.08;;;13.20;99.90;;;;;;5132152;28;20047;-83
2022/07/23 02:40:24;;;;;;;0.00;0.00;;;13.20;99.90;;;;;;5132116;28;20060;-83
2022/07/23 02:42:51;;;;;;;0.20;0.20;;;13.10;99.90;;;;;;5131822;28;20032;-83
2022/07/23 02:45:17;;;;;;;0.10;0.10;;;13.10;99.90;;;;;;5132447;28;20036;-83
2022/07/23 02:47:44;;;;;;;0.00;0.00;;;13.00;99.90;;;;;;5132050;28;20396;-83
2022/07/23 02:50:11;;;;;;;0.25;0.22;;;13.00;99.90;;;;;;5132222;28;20395;-83
2022/07/23 02:52:39;;;;;;;0.08;0.08;;;13.00;99.90;;;;;;5131998;28;20449;-83
2022/07/23 02:55:06;;;;;;;0.20;0.20;;;12.90;99.90;;;;;;5149280;28;20862;-83
2022/07/23 02:57:33;;;;;;;0.08;0.08;;;12.90;99.90;;;;;;5148680;28;20104;-83
2022/07/23 03:00:00;;;;;;;0.32;0.10;;;12.90;99.90;;;;;;5131848;28;20043;-83
2022/07/23 03:02:26;;;;;;;0.10;0.03;;;12.80;99.90;;;;;;5131629;28;20405;-83
2022/07/23 03:04:53;;;;;;;0.08;0.08;;;12.80;99.90;;;;;;5148454;28;20097;-83
2022/07/23 03:07:20;;;;;;;0.03;0.03;;;12.80;99.90;;;;;;5131505;28;20519;-83
2022/07/23 03:09:46;;;;;;;0.20;0.10;;;12.70;99.90;;;;;;5131472;28;20092;-83
2022/07/23 03:12:13;;;;;;;0.20;0.10;;;12.70;99.90;;;;;;5148908;28;20130;-83
2022/07/23 03:14:40;;;;;;;0.10;0.10;;;12.70;99.90;;;;;;5148469;28;20043;-83
2022/07/23 03:17:07;;;;;;;0.20;0.20;;;12.70;99.90;;;;;;5131793;28;20061;-83
2022/07/23 03:19:34;;;;;;;0.10;0.10;;;12.70;99.90;;;;;;5131553;28;20131;-83
2022/07/23 03:22:01;;;;;;;0.00;0.00;;;12.70;99.90;;;;;;5165620;27;20081;-83
2022/07/23 03:27:13;;;;;;;0.20;0.20;;;12.60;99.90;;;;;;5163098;27;20052;-83
2022/07/23 03:29:39;;;;;;;0.03;0.03;;;12.70;99.90;;;;;;5147381;28;21011;-83
2022/07/23 03:32:07;;;;;;;0.10;0.10;;;12.70;99.90;;;;;;5164912;27;20032;-83
2022/07/23 03:34:33;;;;;;;0.17;0.17;;;12.70;99.90;;;;;;5147862;28;20054;-83
2022/07/23 03:37:00;;;;;;;0.20;0.20;;;12.70;99.90;;;;;;5130868;28;20565;-83
2022/07/23 03:39:27;;;;;;;0.00;0.00;;;12.70;99.90;;;;;;5147561;28;20055;-83
2022/07/23 03:41:54;;;;;;;0.05;0.05;;;12.80;99.90;;;;;;5164538;27;20130;-83
2022/07/23 03:44:20;;;;;;;0.20;0.20;;;12.80;99.90;;;;;;5163550;27;20031;-83
2022/07/23 03:46:47;;;;;;;0.05;0.05;;;12.90;99.90;;;;;;5130462;28;20071;-83
2022/07/23 03:49:14;;;;;;;0.20;0.20;;;12.90;99.90;;;;;;5131001;28;20035;-83
2022/07/23 03:51:40;;;;;;;0.03;0.03;;;12.90;99.90;;;;;;5147687;28;20043;-83
2022/07/23 03:54:07;;;;;;;0.10;0.10;;;12.90;99.90;;;;;;5130301;28;20036;-83
2022/07/23 03:56:34;;;;;;;0.00;0.00;;;13.00;99.90;;;;;;5147417;28;20043;-83
2022/07/23 03:59:01;;;;;;;0.00;0.00;;;13.00;99.90;;;;;;5164494;27;20035;-83
2022/07/23 04:01:27;;;;;;;0.00;0.00;;;13.00;99.90;;;;;;5147828;28;20046;-84
2022/07/23 04:03:54;;;;;;;0.10;0.10;;;13.10;99.90;;;;;;5147066;28;20439;-84
2022/07/23 04:06:21;;;;;;;0.13;0.10;;;13.10;99.90;;;;;;5164823;27;20035;-83
2022/07/23 04:08:48;;;;;;;0.32;0.20;;;13.10;99.90;;;;;;5130233;28;20036;-83
2022/07/23 04:11:14;;;;;;;0.00;0.00;;;13.10;99.90;;;;;;5147355;28;20031;-83
2022/07/23 04:13:41;;;;;;;0.10;0.10;;;13.10;99.90;;;;;;5147429;28;20039;-83
2022/07/23 04:16:08;;;;;;;0.15;0.10;;;13.10;99.90;;;;;;5146931;28;20188;-84
2022/07/23 04:18:34;;;;;;;0.08;0.08;;;13.10;99.90;;;;;;5147352;28;20042;-83
2022/07/23 04:21:01;;;;;;;0.10;0.10;;;13.10;99.90;;;;;;5130117;28;20040;-83
2022/07/23 04:23:28;;;;;;;0.10;0.10;;;13.10;99.90;;;;;;5130157;28;20043;-83
2022/07/23 04:25:54;;;;;;;0.10;0.10;;;13.10;99.90;;;;;;5147024;28;20036;-83
2022/07/23 04:28:21;;;;;;;0.10;0.10;;;13.20;99.90;;;;;;5147336;28;20400;-84
2022/07/23 04:30:48;;;;;;;0.20;0.20;;;13.30;99.90;;;;;;5147303;28;20372;-83
2022/07/23 04:33:14;;;;;;;0.10;0.10;;;13.30;99.90;;;;;;5147518;28;20070;-83
2022/07/23 04:35:41;;;;;;;0.10;0.10;;;13.20;99.90;;;;;;5147245;28;20044;-83
2022/07/23 04:38:08;;;;;;;0.30;0.25;;;13.30;99.90;;;;;;5129816;28;20526;-83
2022/07/23 04:40:35;;;;;;;1.60;0.30;;;13.30;99.90;;;;;;5146688;28;20385;-83
2022/07/23 04:43:01;;;;;;;0.10;0.10;;;13.40;99.90;;;;;;5146407;28;20119;-83
2022/07/23 04:45:28;;;;;;;0.17;0.10;;;13.40;99.90;;;;;;5163829;27;20039;-83
2022/07/23 04:47:56;;;;;;;0.10;0.10;;;13.40;99.90;;;;;;5129714;28;20070;-83
2022/07/23 04:50:23;;;;;;;0.10;0.10;;;13.50;99.90;;;;;;5146634;28;20514;-84
2022/07/23 04:52:50;;;;;;;0.32;0.20;;;13.50;99.90;;;;;;5147151;28;20040;-83
2022/07/23 04:55:17;;;;;;;0.10;0.10;;;13.60;99.90;;;;;;5163863;27;20043;-83
2022/07/23 04:57:44;;;;;;;0.10;0.10;;;13.60;99.90;;;;;;5129657;28;20097;-84
2022/07/23 05:00:11;;;;;;;0.10;0.10;;;13.70;99.90;;;;;;5129618;28;20089;-83
2022/07/23 05:02:38;;;;;;;0.13;0.13;;;13.70;99.90;;;;;;5146683;28;20046;-83
2022/07/23 05:05:05;;;;;;;0.10;0.10;;;13.80;99.90;;;;;;5129595;28;20123;-84
2022/07/23 05:07:32;;;;;;;0.10;0.10;;;13.90;99.90;;;;;;5146708;28;20407;-84
2022/07/23 05:09:58;;;;;;;0.30;0.20;;;14.00;99.90;;;;;;5146473;28;20115;-83
2022/07/23 05:12:25;;;;;;;0.10;0.08;;;14.00;99.90;;;;;;5127698;28;20099;-84
2022/07/23 05:14:52;;;;;;;0.28;0.10;;;14.00;99.90;;;;;;5146743;28;20042;-83
2022/07/23 05:17:19;;;;;;;0.10;0.10;;;14.00;99.90;;;;;;5120019;28;20497;-83
2022/07/23 05:19:46;;;;;;;0.10;0.10;;;14.10;99.90;;;;;;5160057;27;20047;-84
2022/07/23 05:22:12;;;;;;;0.10;0.10;;;14.10;99.90;;;;;;5138293;28;20043;-83
2022/07/23 05:24:39;;;;;;;0.17;0.15;;;14.20;99.90;;;;;;5153967;28;20028;-83
2022/07/23 05:27:06;;;;;;;0.32;0.20;;;14.30;99.90;;;;;;5112351;28;20036;-84
2022/07/23 05:29:33;;;;;;;0.00;0.00;;;14.40;99.90;;;;;;5096456;28;20047;-84
2022/07/23 05:32:00;;;;;;;0.00;0.00;;;14.40;99.90;;;;;;5106323;28;20578;-84
2022/07/23 05:34:26;;;;;;;0.20;0.20;;;14.50;99.90;;;;;;5141213;28;20489;-85
2022/07/23 05:36:53;;;;;;;0.10;0.10;;;14.60;99.90;;;;;;5129758;28;20047;-83
2022/07/23 05:39:20;;;;;;;0.20;0.10;;;14.50;99.90;;;;;;5110858;28;20052;-85
2022/07/23 05:41:46;;;;;;;0.20;0.10;;;14.70;99.90;;;;;;5126055;28;20076;-83
2022/07/23 05:44:13;;;;;;;0.10;0.10;;;14.70;99.90;;;;;;5092446;28;20040;-83
2022/07/23 05:46:40;;;;;;;0.10;0.10;;;14.70;99.90;;;;;;5103129;28;20094;-83
2022/07/23 05:49:06;;;;;;;0.15;0.10;;;14.80;99.90;;;;;;5146169;28;20458;-83
2022/07/23 05:51:33;;;;;;;0.20;0.20;;;14.80;99.90;;;;;;5129581;28;20047;-85
2022/07/23 05:54:00;;;;;;;0.10;0.10;;;14.90;99.90;;;;;;5129605;28;20051;-84
2022/07/23 05:56:26;;;;;;;0.25;0.15;;;15.00;99.90;;;;;;5146211;28;20036;-82
2022/07/23 05:58:53;;;;;;;0.10;0.10;;;15.00;99.90;;;;;;5125136;28;20033;-84
2022/07/23 06:01:20;;;;;;;0.10;0.10;;;15.00;99.90;;;;;;5112020;28;20126;-85
2022/07/23 06:03:46;;;;;;;0.10;0.10;;;15.10;99.90;;;;;;5112307;28;20426;-84
2022/07/23 06:06:13;;;;;;;0.22;0.20;;;15.10;99.90;;;;;;5118494;28;20131;-83
2022/07/23 06:08:40;;;;;;;0.20;0.10;;;15.20;99.90;;;;;;5118862;28;20036;-83
2022/07/23 06:11:07;;;;;;;0.05;0.05;;;15.30;99.90;;;;;;5112101;28;20036;-83
2022/07/23 06:13:33;;;;;;;0.10;0.10;;;15.30;99.90;;;;;;5148690;28;20088;-83
2022/07/23 06:16:00;;;;;;;0.08;0.08;;;15.40;99.90;;;;;;5115923;28;20036;-85
2022/07/23 06:18:27;;;;;;;0.17;0.13;;;15.40;99.90;;;;;;5122082;28;20078;-84
2022/07/23 06:20:54;;;;;;;0.15;0.10;;;15.40;99.90;;;;;;5129569;28;20036;-83
2022/07/23 06:23:21;;;;;;;0.13;0.13;;;15.40;99.90;;;;;;5129161;28;20044;-85
2022/07/23 06:25:47;;;;;;;0.10;0.10;;;15.60;99.90;;;;;;5165906;27;20035;-85
2022/07/23 06:28:15;;;;;;;0.22;0.15;;;15.60;99.90;;;;;;5132480;28;20089;-83
2022/07/23 06:30:42;;;;;;;0.10;0.10;;;15.70;99.90;;;;;;5134560;28;20092;-86
2022/07/23 06:33:09;;;;;;;0.03;0.03;;;15.80;99.90;;;;;;5133257;28;20431;-86
2022/07/23 06:35:36;;;;;;;0.10;0.10;;;15.80;99.90;;;;;;5167409;27;20474;-86
2022/07/23 06:38:03;;;;;;;0.10;0.10;;;15.90;99.90;;;;;;5121951;28;20072;-84
2022/07/23 06:40:29;;;;;;;0.03;0.03;;;15.90;99.90;;;;;;5146139;28;20104;-85
2022/07/23 06:42:56;;;;;;;0.10;0.10;;;16.10;99.90;;;;;;5148411;28;20015;-82
2022/07/23 06:45:23;;;;;;;0.10;0.10;;;16.10;99.90;;;;;;5139673;28;20564;-84
2022/07/23 06:47:49;;;;;;;0.15;0.15;;;16.20;99.90;;;;;;5111982;28;20039;-86
2022/07/23 06:50:16;;;;;;;0.20;0.20;;;16.30;99.90;;;;;;5123567;28;20044;-85
2022/07/23 06:52:43;;;;;;;0.15;0.10;;;16.30;99.90;;;;;;5126491;28;20078;-86
2022/07/23 06:55:10;;;;;;;0.25;0.20;;;16.40;99.90;;;;;;5133379;28;20048;-85
2022/07/23 06:57:37;;;;;;;0.05;0.05;;;16.50;99.90;;;;;;5156989;27;20084;-86
2022/07/23 07:00:04;;;;;;;0.05;0.05;;;16.60;99.90;;;;;;5143289;28;20125;-86
2022/07/23 07:02:31;;;;;;;0.03;0.03;;;16.70;99.90;;;;;;5147410;27;20492;-85
2022/07/23 07:04:58;;;;;;;0.10;0.10;;;16.80;99.90;;;;;;5149074;28;20172;-83
2022/07/23 07:07:24;;;;;;;0.08;0.08;;;16.80;99.90;;;;;;5151287;28;20050;-83
2022/07/23 07:09:51;;;;;;;0.05;0.00;;;17.00;99.90;;;;;;5132124;28;20393;-86
2022/07/23 07:12:18;;;;;;;0.10;0.10;;;16.90;99.90;;;;;;5149891;28;20039;-84
2022/07/23 07:14:44;;;;;;;0.10;0.10;;;17.00;99.90;;;;;;5140094;28;20433;-85
2022/07/23 07:17:11;;;;;;;0.10;0.10;;;17.10;99.90;;;;;;5140196;28;20542;-85
2022/07/23 07:19:38;;;;;;;0.10;0.10;;;17.20;99.90;;;;;;5166987;27;20039;-86
2022/07/23 07:22:05;;;;;;;0.10;0.10;;;17.20;99.90;;;;;;5131635;28;20047;-86
2022/07/23 07:24:31;;;;;;;0.00;0.00;;;17.20;99.90;;;;;;5130948;28;20045;-86
2022/07/23 07:26:58;;;;;;;0.00;0.00;;;17.10;99.90;;;;;;5132676;28;20043;-85
2022/07/23 07:29:25;;;;;;;0.00;0.00;;;17.20;99.90;;;;;;5143116;28;20032;-86
2022/07/23 07:31:51;;;;;;;0.10;0.10;;;17.20;99.90;;;;;;5148348;28;20123;-86
2022/07/23 07:34:18;;;;;;;0.00;0.00;;;17.20;99.90;;;;;;5131390;28;20051;-86
2022/07/23 07:36:45;;;;;;;0.00;0.00;;;17.20;99.90;;;;;;5131269;28;20039;-86
2022/07/23 07:39:12;;;;;;;0.10;0.10;;;17.10;99.90;;;;;;5131077;28;20071;-87
2022/07/23 07:41:38;;;;;;;0.10;0.10;;;17.20;99.90;;;;;;5149929;27;20100;-86
2022/07/23 07:44:05;;;;;;;0.10;0.10;;;17.20;99.90;;;;;;5135195;27;20487;-86
2022/07/23 07:46:32;;;;;;;0.10;0.10;;;17.30;99.90;;;;;;5134609;27;20458;-87
2022/07/23 07:48:58;;;;;;;0.05;0.05;;;17.20;99.90;;;;;;5123349;28;20035;-86
2022/07/23 07:51:26;;;;;;;0.00;0.00;;;17.30;99.90;;;;;;5150769;27;20044;-88
2022/07/23 07:53:53;;;;;;;0.00;0.00;;;17.40;99.90;;;;;;5145251;28;20075;-91
2022/07/23 07:56:19;;;;;;;0.00;0.00;;;17.50;99.90;;;;;;5148679;28;20132;-83
2022/07/23 07:58:46;;;;;;;0.00;0.00;;;17.50;99.90;;;;;;5148189;28;20044;-87
2022/07/23 08:01:13;;;;;;;0.00;0.00;;;17.60;99.90;;;;;;5126653;28;20043;-88
2022/07/23 08:03:40;;;;;;;0.10;0.10;;;17.60;99.90;;;;;;5129199;28;20036;-87
2022/07/23 08:06:06;;;;;;;0.00;0.00;;;17.60;99.90;;;;;;5128167;28;20044;-84
2022/07/23 08:08:33;;;;;;;0.32;0.17;;;17.90;99.90;;;;;;5128150;28;20153;-87
2022/07/23 08:11:00;;;;;;;6.47;0.63;;;18.10;99.90;;;;;;5131117;28;20036;-88
2022/07/23 08:13:27;;;;;;;0.03;0.03;;;18.30;99.90;;;;;;5130703;28;20046;-86
2022/07/23 08:15:53;;;;;;;0.00;0.00;;;18.40;99.90;;;;;;5131153;28;20039;-85
2022/07/23 08:18:20;;;;;;;0.40;0.30;;;18.30;99.90;;;;;;5130972;28;20050;-88
2022/07/23 08:20:47;;;;;;;0.10;0.10;;;18.40;99.90;;;;;;5095746;28;20051;-87
2022/07/23 08:23:14;;;;;;;0.00;0.00;;;18.50;99.90;;;;;;5130544;28;20184;-88
2022/07/23 08:25:42;;;;;;;0.00;0.00;;;18.30;99.90;;;;;;5112364;28;20046;-88
2022/07/23 08:28:13;;;;;;;0.00;0.00;;;18.30;99.90;;;;;;5113033;28;20031;-88
2022/07/23 08:30:41;;;;;;;0.00;0.00;;;18.30;99.90;;;;;;5113840;28;20392;-88
2022/07/23 08:33:15;;;;;;;0.90;0.20;;;18.20;99.90;;;;;;5130553;28;20046;-89
2022/07/23 08:35:46;;;;;;;0.00;0.00;;;18.20;99.90;;;;;;5129854;28;20043;-89
2022/07/23 08:38:15;;;;;;;0.00;0.00;;;18.10;99.90;;;;;;5162170;27;20047;-90
2022/07/23 08:40:45;;;;;;;0.10;0.10;;;18.00;99.90;;;;;;5113604;28;20059;-90
2022/07/23 08:43:22;;;;;;;0.10;0.10;;;17.90;99.90;;;;;;5129384;28;20051;-89
2022/07/23 08:45:51;;;;;;;0.15;0.10;;;17.90;99.90;;;;;;5128156;28;20049;-89
2022/07/23 08:48:21;;;;;;;0.10;0.10;;;18.10;99.90;;;;;;5112803;28;20040;-88
2022/07/23 08:50:51;;;;;;;0.10;0.00;;;18.30;99.90;;;;;;5180355;27;20035;-85
2022/07/23 08:53:20;;;;;;;0.00;0.00;;;18.50;99.90;;;;;;5127669;28;20047;-89
2022/07/23 08:55:52;;;;;;;0.10;0.10;;;18.70;99.90;;;;;;5132411;28;20499;-90
2022/07/23 08:58:19;;;;;;;0.08;0.08;;;18.90;99.90;;;;;;5112014;28;20137;-89
2022/07/23 09:00:47;;;;;;;0.05;0.05;;;19.00;99.90;;;;;;5109881;28;20036;-90
2022/07/23 09:03:17;;;;;;;0.00;0.00;;;19.30;99.90;;;;;;5130654;28;20052;-89
2022/07/23 09:05:44;;;;;;;0.10;0.10;;;19.20;99.90;;;;;;5125199;28;20067;-86
2022/07/23 09:08:16;;;;;;;0.00;0.00;;;19.20;99.90;;;;;;5128238;28;20090;-85
2022/07/23 09:10:54;;;;;;;0.10;0.10;;;19.20;99.90;;;;;;5126406;28;20044;-86
2022/07/23 09:13:46;;;;;;;0.00;0.00;;;19.20;99.90;;;;;;5128864;28;20047;-85
2022/07/23 09:16:21;;;;;;;0.10;0.10;;;19.10;99.90;;;;;;5129196;28;20054;-87
2022/07/23 09:18:54;;;;;;;0.05;0.00;;;19.00;99.90;;;;;;5125885;28;20078;-88
2022/07/23 09:21:25;;;;;;;0.13;0.00;;;18.90;99.90;;;;;;5129340;28;20096;-88
2022/07/23 09:24:03;;;;;;;0.00;0.00;;;19.00;99.90;;;;;;5127069;28;20035;-87
2022/07/23 09:26:37;;;;;;;0.10;0.10;;;19.00;99.90;;;;;;5127295;28;20075;-86
2022/07/23 09:29:06;;;;;;;0.00;0.00;;;19.10;99.90;;;;;;5136786;28;20449;-89
2022/07/23 09:31:52;;;;;;;0.10;0.10;;;19.30;99.90;;;;;;5129106;28;20047;-88
2022/07/23 09:34:23;;;;;;;;;;;19.50;99.90;;;;;;5122732;28;20521;-87
2022/07/23 09:36:53;;;;;;;0.10;0.10;;;19.50;99.90;;;;;;5162176;27;19923;-86
2022/07/23 09:39:47;;;;;;;0.00;0.00;;;19.80;99.90;;;;;;5129143;28;20052;-86
2022/07/23 09:42:14;;;;;;;0.10;0.08;;;20.10;99.90;;;;;;5094052;28;20051;-86
2022/07/23 09:44:43;;;;;;;0.55;0.17;;;20.10;99.90;;;;;;5112711;28;20040;-88
2022/07/23 09:47:10;;;;;;;0.10;0.10;;;20.20;99.90;;;;;;5112424;28;20062;-86
2022/07/23 09:49:36;;;;;;;0.00;0.00;;;20.40;99.90;;;;;;5113942;28;20040;-85
2022/07/23 09:52:04;;;;;;;0.00;0.00;;;20.70;99.90;;;;;;5115845;28;20074;-86
2022/07/23 09:54:40;;;;;;;0.10;0.00;;;20.80;99.90;;;;;;5116242;28;20083;-86
2022/07/23 09:57:14;;;;;;;0.10;0.10;;;20.90;99.90;;;;;;5133389;28;20035;-85
2022/07/23 09:59:42;;;;;;;0.03;0.03;;;20.90;99.90;;;;;;5133289;27;20488;-86
2022/07/23 10:02:14;;;;;;;0.10;0.10;;;20.70;99.90;;;;;;5149399;28;20050;-88
2022/07/23 10:04:42;;;;;;;0.00;0.00;;;20.70;99.90;;;;;;5149919;28;20473;-86
2022/07/23 10:07:10;;;;;;;0.10;0.10;;;20.60;99.90;;;;;;5132694;28;20114;-88
2022/07/23 10:09:39;;;;;;;0.08;0.08;;;20.50;99.90;;;;;;5150352;28;20089;-85
2022/07/23 10:14:42;;;;;;;0.10;0.10;;;20.10;99.90;;;;;;5149646;28;20454;-85
2022/07/23 10:17:09;;;;;;;0.13;0.10;;;19.90;99.90;;;;;;5130640;28;20036;-85
2022/07/23 10:19:36;;;;;;;0.13;0.13;;;19.90;99.90;;;;;;5114343;28;20043;-86
2022/07/23 10:22:11;;;;;;;0.10;0.10;;;20.00;99.90;;;;;;5132650;28;20123;-84
2022/07/23 10:25:08;;;;;;;0.00;0.00;;;20.10;99.90;;;;;;5149145;28;20040;-87
2022/07/23 10:27:51;;;;;;;0.03;0.03;;;20.40;99.90;;;;;;5112276;28;20488;-86
2022/07/23 10:30:20;;;;;;;0.32;0.20;;;20.50;99.90;;;;;;5112394;28;20435;-87
2022/07/23 10:32:50;;;;;;;0.10;0.10;;;20.40;99.90;;;;;;5129157;28;20488;-86
2022/07/23 10:35:38;;;;;;;0.00;0.00;;;20.20;99.90;;;;;;5112119;28;20040;-86
2022/07/23 10:38:20;;;;;;;0.13;0.10;;;20.40;99.90;;;;;;5117027;28;20032;-85
2022/07/23 10:40:58;;;;;;;0.10;0.10;;;20.80;99.90;;;;;;5131775;28;20553;-86
2022/07/23 10:43:26;;;;;;;0.10;0.10;;;20.80;99.90;;;;;;5148713;28;20043;-85
2022/07/23 10:45:56;;;;;;;0.05;0.05;;;20.80;99.90;;;;;;5166207;27;20504;-86
2022/07/23 10:48:26;;;;;;;0.10;0.10;;;20.70;99.90;;;;;;5149235;28;20194;-86
2022/07/23 10:51:08;;;;;;;0.00;0.00;;;20.70;99.90;;;;;;5133126;28;20067;-85
2022/07/23 10:53:50;;;;;;;0.00;0.00;;;20.70;99.90;;;;;;5131383;28;20032;-86
2022/07/23 10:56:58;;;;;;;0.13;0.10;;;20.90;99.90;;;;;;5166127;27;20082;-86
2022/07/23 10:59:25;;;;;;;0.10;0.05;;;21.00;99.90;;;;;;5132054;28;20047;-86
2022/07/23 11:02:22;;;;;;;1.02;0.63;;;21.00;99.90;;;;;;5131634;28;20093;-86
2022/07/23 11:04:51;;;;;;;0.15;0.10;;;21.10;99.90;;;;;;5166056;27;20500;-85
2022/07/23 11:07:18;;;;;;;0.05;0.05;;;21.30;99.90;;;;;;5131661;28;20036;-86
2022/07/23 11:09:48;;;;;;;0.10;0.10;;;21.20;99.90;;;;;;5131943;28;20123;-86
2022/07/23 11:12:21;;;;;;;0.10;0.10;;;21.00;99.90;;;;;;5148799;28;20581;-86
2022/07/23 11:15:09;;;;;;;0.20;0.13;;;21.10;99.90;;;;;;5148518;28;20047;-86
2022/07/23 11:17:51;;;;;;;0.10;0.10;;;21.10;99.90;;;;;;5165704;27;20131;-86
2022/07/23 11:20:23;;;;;;;0.00;0.00;;;21.30;99.90;;;;;;5165622;27;20078;-85
2022/07/23 11:22:52;;;;;;;0.10;0.10;;;21.20;99.90;;;;;;5131381;28;20545;-86
2022/07/23 11:25:22;;;;;;;0.15;0.15;;;21.20;99.90;;;;;;5131761;28;20093;-85
2022/07/23 11:27:51;;;;;;;0.10;0.10;;;21.20;99.90;;;;;;5111244;28;20032;-87
2022/07/23 11:30:27;;;;;;;0.15;0.15;;;21.00;99.90;;;;;;5154172;27;20071;-85
2022/07/23 11:33:09;;;;;;;0.20;0.20;;;20.80;99.90;;;;;;5165231;27;20135;-86
2022/07/23 11:35:38;;;;;;;1.42;0.30;;;20.70;99.90;;;;;;5165486;27;20036;-86
2022/07/23 11:38:13;;;;;;;0.00;0.00;;;20.60;99.90;;;;;;5147924;28;20773;-86
2022/07/23 11:40:40;;;;;;;0.03;0.03;;;20.40;99.90;;;;;;5164890;27;20059;-86
2022/07/23 11:43:10;;;;;;;0.10;0.10;;;20.40;99.90;;;;;;5131167;28;20122;-86
2022/07/23 11:45:43;;;;;;;0.10;0.10;;;20.40;99.90;;;;;;5165196;27;20039;-86
2022/07/23 11:48:18;;;;;;;0.17;0.15;;;20.50;99.90;;;;;;5131273;28;20071;-86
2022/07/23 11:50:45;;;;;;;0.17;0.15;;;20.50;99.90;;;;;;5131222;28;20039;-86
2022/07/23 11:53:12;;;;;;;0.10;0.10;;;20.50;99.90;;;;;;5131323;28;20122;-86
2022/07/23 11:55:39;;;;;;;0.20;0.20;;;20.70;99.90;;;;;;5130916;28;20048;-85
2022/07/23 11:58:06;;;;;;;0.10;0.10;;;20.50;99.90;;;;;;5130972;28;20046;-87
2022/07/23 12:00:33;;;;;;;0.20;0.10;;;20.60;99.90;;;;;;5148038;28;20053;-85
2022/07/23 12:03:02;;;;;;;0.10;0.10;;;20.60;99.90;;;;;;5147236;28;20043;-86
2022/07/23 12:05:35;;;;;;;0.10;0.10;;;20.60;99.90;;;;;;5141241;28;20460;-85
2022/07/23 12:08:04;;;;;;;0.10;0.10;;;20.60;99.90;;;;;;5159361;27;20471;-86
2022/07/23 12:10:38;;;;;;;0.10;0.10;;;20.60;99.90;;;;;;5113923;28;20488;-85
2022/07/23 12:13:10;;;;;;;0.10;0.10;;;20.60;99.90;;;;;;5130306;28;20070;-86
2022/07/23 12:15:48;;;;;;;0.20;0.20;;;20.60;99.90;;;;;;5130456;28;20054;-86
2022/07/23 12:18:18;;;;;;;0.10;0.10;;;20.50;99.90;;;;;;5130893;28;20035;-86
2022/07/23 12:20:58;;;;;;;0.10;0.10;;;20.40;99.90;;;;;;5130442;28;20051;-86
2022/07/23 12:23:26;;;;;;;0.15;0.15;;;20.50;99.90;;;;;;5130145;28;20051;-86
2022/07/23 12:25:54;;;;;;;0.20;0.20;;;20.50;99.90;;;;;;5146871;28;20035;-86
2022/07/23 12:28:29;;;;;;;0.20;0.10;;;20.30;99.90;;;;;;5147365;28;20039;-86
2022/07/23 12:30:58;;;;;;;0.10;0.10;;;20.30;99.90;;;;;;5130403;28;20105;-86
2022/07/23 12:33:37;;;;;;;0.35;0.17;;;20.00;99.90;;;;;;5147492;28;20156;-85
2022/07/23 12:36:07;;;;;;;0.22;0.15;;;20.10;99.90;;;;;;5129993;28;20043;-86
2022/07/23 12:38:48;;;;;;;0.20;0.20;;;20.00;99.90;;;;;;5130504;28;20130;-86
2022/07/23 12:41:16;;;;;;;0.20;0.20;;;20.00;99.90;;;;;;5147071;28;20108;-85
2022/07/23 12:43:45;;;;;;;0.20;0.20;;;20.10;99.90;;;;;;5164063;27;20035;-86
2022/07/23 12:46:14;;;;;;;0.13;0.13;;;20.20;99.90;;;;;;5130028;28;20035;-86
2022/07/23 12:48:49;;;;;;;0.32;0.17;;;20.50;99.90;;;;;;5164485;27;20044;-85
2022/07/23 12:51:39;;;;;;;0.10;0.10;;;20.70;99.90;;;;;;5164581;27;20044;-86
2022/07/23 12:54:09;;;;;;;0.10;0.10;;;20.80;99.90;;;;;;5129662;28;20519;-86
2022/07/23 12:56:38;;;;;;;0.15;0.15;;;21.10;99.90;;;;;;5130688;28;20043;-86
2022/07/23 12:59:09;;;;;;;0.25;0.25;;;21.20;99.90;;;;;;5129683;28;20042;-86
2022/07/23 13:01:38;;;;;;;0.10;0.10;;;21.30;99.90;;;;;;5129987;28;20046;-85